Time;durP1;ratioP1;P1;durP2;ratioP2;P2;SDS_P1;SDS_P2;PMS_P1;PMS_P2;Temp;Humidity;BMP_temperature;BMP_pressure;BME280_temperature;BME280_humidity;BME280_pressure;Samples;Min_cycle;Max_cycle;Signal;HPM_P1;HPM_P2
2021/06/24 15:18:42;;;;;;;10.90;8.55;;;;;;;;;;5971163;23;21644;-49
2021/06/24 15:21:09;;;;;;;12.30;8.25;;;;;;;;;;4952428;28;20067;-51
2021/06/24 15:23:35;;;;;;;11.52;8.38;;;;;;;;;;4966117;28;20039;-54
2021/06/24 15:26:03;;;;;;;12.68;8.35;;;;;;;;;;4952890;28;20203;-49
2021/06/24 15:28:29;;;;;;;11.48;8.90;;;;;;;;;;4944667;29;20178;-52
2021/06/24 15:30:57;;;;;;;11.40;8.18;;;;;;;;;;4965351;28;20073;-51
2021/06/24 15:33:23;;;;;;;11.00;7.82;;;;;;;;;;4953402;28;20039;-48
2021/06/24 15:35:50;;;;;;;12.15;8.50;;;;;;;;;;4968351;28;20042;-52
2021/06/24 15:38:16;;;;;;;11.50;7.50;;;;;;;;;;4957546;28;20027;-47
2021/06/24 15:40:42;;;;;;;10.05;8.18;;;;;;;;;;4966114;28;20031;-49
2021/06/24 15:43:08;;;;;;;9.45;8.02;;;;;;;;;;4953090;28;20034;-47
2021/06/24 15:45:34;;;;;;;10.93;8.10;;;;;;;;;;4951581;28;20030;-48
2021/06/24 15:48:00;;;;;;;9.27;7.68;;;;;;;;;;4970457;28;20026;-50
2021/06/24 15:50:28;;;;;;;10.50;7.18;;;;;;;;;;4954207;28;20054;-47
2021/06/24 15:52:54;;;;;;;11.38;8.40;;;;;;;;;;4963747;28;20096;-49
2021/06/24 15:55:21;;;;;;;9.35;7.50;;;;;;;;;;4962230;28;20507;-47
2021/06/24 15:57:47;;;;;;;10.75;7.90;;;;;;;;;;4968577;28;20031;-48
2021/06/24 16:00:15;;;;;;;11.95;8.90;;;;;;;;;;4956500;28;20502;-48
2021/06/24 16:02:42;;;;;;;10.40;8.07;;;;;;;;;;4947516;28;20027;-47
2021/06/24 16:05:08;;;;;;;9.57;7.55;;;;;;;;;;4970815;28;20778;-50
2021/06/24 16:07:34;;;;;;;9.32;7.53;;;;;;;;;;4961905;28;20107;-51
2021/06/24 16:10:03;;;;;;;11.65;8.80;;;;;;;;;;4966959;28;20063;-51
2021/06/24 16:12:32;;;;;;;10.50;8.00;;;;;;;;;;4963225;28;20078;-48
2021/06/24 16:14:59;;;;;;;9.27;7.80;;;;;;;;;;4956380;28;20057;-50
2021/06/24 16:17:25;;;;;;;13.02;8.02;;;;;;;;;;4952041;28;20106;-49
2021/06/24 16:19:51;;;;;;;10.75;8.07;;;;;;;;;;4952860;28;20106;-48
2021/06/24 16:22:17;;;;;;;11.05;8.57;;;;;;;;;;4958215;28;20516;-50
2021/06/24 16:24:43;;;;;;;12.20;7.82;;;;;;;;;;4958619;28;20110;-49
2021/06/24 16:27:10;;;;;;;10.73;7.57;;;;;;;;;;4965327;28;20027;-48
2021/06/24 16:29:36;;;;;;;12.57;8.10;;;;;;;;;;4955017;28;20031;-52
2021/06/24 16:32:04;;;;;;;10.40;8.25;;;;;;;;;;4978901;28;20117;-49
2021/06/24 16:34:30;;;;;;;9.60;8.07;;;;;;;;;;4951097;28;20046;-50
2021/06/24 16:36:58;;;;;;;10.98;8.05;;;;;;;;;;4971120;28;20062;-49
2021/06/24 16:39:27;;;;;;;9.52;7.28;;;;;;;;;;4962725;28;20024;-48
2021/06/24 16:41:55;;;;;;;9.43;8.25;;;;;;;;;;4964994;28;20110;-51
2021/06/24 16:44:21;;;;;;;9.73;8.27;;;;;;;;;;4962000;28;20031;-49
2021/06/24 16:46:48;;;;;;;11.98;9.00;;;;;;;;;;4966641;28;20058;-48
2021/06/24 16:49:14;;;;;;;11.32;8.57;;;;;;;;;;4953129;28;20098;-52
2021/06/24 16:51:43;;;;;;;9.77;8.07;;;;;;;;;;4952636;28;20031;-51
2021/06/24 16:54:10;;;;;;;9.73;8.73;;;;;;;;;;4952596;28;20024;-49
2021/06/24 16:56:36;;;;;;;10.55;8.35;;;;;;;;;;4952574;28;20086;-52
2021/06/24 16:59:02;;;;;;;10.93;8.25;;;;;;;;;;4965816;28;20039;-51
2021/06/24 17:01:31;;;;;;;9.35;7.25;;;;;;;;;;4969181;28;20055;-48
2021/06/24 17:03:57;;;;;;;9.13;7.95;;;;;;;;;;4975448;28;20536;-50
2021/06/24 17:06:23;;;;;;;10.60;7.90;;;;;;;;;;4958929;28;20372;-48
2021/06/24 17:08:49;;;;;;;10.48;8.48;;;;;;;;;;4956547;29;20034;-54
2021/06/24 17:11:18;;;;;;;10.93;8.00;;;;;;;;;;4968577;28;20042;-52
2021/06/24 17:13:47;;;;;;;11.13;7.65;;;;;;;;;;4956004;28;20106;-49
2021/06/24 17:16:13;;;;;;;10.07;8.02;;;;;;;;;;4956020;29;20027;-52
2021/06/24 17:18:39;;;;;;;11.48;8.88;;;;;;;;;;4963913;28;20438;-50
2021/06/24 17:21:05;;;;;;;12.02;8.43;;;;;;;;;;4956982;28;20063;-52
2021/06/24 17:23:34;;;;;;;11.13;8.00;;;;;;;;;;4956745;28;20122;-51
2021/06/24 17:26:00;;;;;;;11.40;8.88;;;;;;;;;;4959176;28;20034;-51
2021/06/24 17:28:29;;;;;;;11.23;8.40;;;;;;;;;;4974655;28;20503;-53
2021/06/24 17:30:55;;;;;;;10.10;8.02;;;;;;;;;;4951449;28;20042;-50
2021/06/24 17:33:23;;;;;;;8.77;7.88;;;;;;;;;;4963159;28;20511;-50
2021/06/24 17:35:52;;;;;;;8.68;7.38;;;;;;;;;;4971058;28;20082;-50
2021/06/24 17:38:18;;;;;;;9.60;7.93;;;;;;;;;;4962177;28;20086;-51
2021/06/24 17:40:44;;;;;;;9.82;8.20;;;;;;;;;;4953330;29;20027;-52
2021/06/24 17:43:11;;;;;;;14.32;7.70;;;;;;;;;;4955343;28;20098;-62
2021/06/24 17:45:37;;;;;;;;;;;;;;;;;;4957349;28;20031;-46
2021/06/24 17:48:06;;;;;;;11.70;8.57;;;;;;;;;;4967621;28;20079;-54
2021/06/24 17:50:33;;;;;;;10.60;7.97;;;;;;;;;;4972728;28;20644;-50
2021/06/24 17:52:59;;;;;;;11.85;8.13;;;;;;;;;;4985616;28;20096;-50
2021/06/24 17:55:37;;;;;;;10.37;8.10;;;;;;;;;;4956494;28;20122;-47
2021/06/24 17:58:06;;;;;;;10.63;8.18;;;;;;;;;;4963195;28;20038;-51
2021/06/24 18:00:35;;;;;;;9.27;7.88;;;;;;;;;;4954563;28;20027;-52
2021/06/24 18:03:01;;;;;;;8.70;7.65;;;;;;;;;;4942302;28;20057;-48
2021/06/24 18:05:30;;;;;;;9.60;7.70;;;;;;;;;;4967546;28;20421;-48
2021/06/24 18:07:58;;;;;;;9.02;7.57;;;;;;;;;;4968314;28;20093;-49
2021/06/24 18:10:30;;;;;;;9.25;7.30;;;;;;;;;;4971569;28;20528;-46
2021/06/24 18:12:56;;;;;;;9.30;7.43;;;;;;;;;;4955183;28;20027;-48
2021/06/24 18:15:25;;;;;;;9.80;8.18;;;;;;;;;;4973265;28;20019;-45
2021/06/24 18:17:51;;;;;;;9.38;8.35;;;;;;;;;;4973049;28;20026;-46
2021/06/24 18:20:17;;;;;;;9.07;7.10;;;;;;;;;;4972948;28;20164;-47
2021/06/24 18:22:46;;;;;;;10.15;8.20;;;;;;;;;;4947584;29;20061;-50
2021/06/24 18:25:13;;;;;;;9.48;8.40;;;;;;;;;;4961443;28;20029;-50
2021/06/24 18:27:40;;;;;;;8.75;7.82;;;;;;;;;;4950231;28;20031;-50
2021/06/24 18:30:06;;;;;;;11.17;8.07;;;;;;;;;;4973807;28;20023;-49
2021/06/24 18:32:33;;;;;;;9.38;7.57;;;;;;;;;;4974133;28;20023;-47
2021/06/24 18:34:59;;;;;;;9.02;7.13;;;;;;;;;;4973269;28;20039;-47
2021/06/24 18:37:28;;;;;;;10.80;8.07;;;;;;;;;;4964825;28;20504;-47
2021/06/24 18:39:54;;;;;;;8.38;7.35;;;;;;;;;;4962252;28;20106;-47
2021/06/24 18:42:20;;;;;;;10.40;7.85;;;;;;;;;;4952542;28;20056;-46
2021/06/24 18:44:46;;;;;;;10.73;8.03;;;;;;;;;;4945496;29;20095;-47
2021/06/24 18:47:12;;;;;;;10.88;7.68;;;;;;;;;;4965085;28;20019;-47
2021/06/24 18:49:41;;;;;;;7.72;6.85;;;;;;;;;;4971418;28;20049;-48
2021/06/24 18:52:09;;;;;;;7.90;6.63;;;;;;;;;;4965034;28;20038;-47
2021/06/24 18:54:35;;;;;;;8.65;7.35;;;;;;;;;;4968586;28;20455;-46
2021/06/24 18:57:05;;;;;;;8.90;7.40;;;;;;;;;;4968890;28;20035;-50
2021/06/24 18:59:31;;;;;;;10.65;8.07;;;;;;;;;;4950630;28;20200;-48
2021/06/24 19:01:57;;;;;;;10.20;7.90;;;;;;;;;;4965739;28;20027;-52
2021/06/24 19:04:26;;;;;;;8.70;7.63;;;;;;;;;;4968146;28;20030;-48
2021/06/24 19:06:56;;;;;;;10.77;7.85;;;;;;;;;;4969228;28;20074;-47
2021/06/24 19:09:22;;;;;;;8.55;7.18;;;;;;;;;;4968829;28;20042;-51
2021/06/24 19:11:48;;;;;;;8.68;7.18;;;;;;;;;;4965114;28;20050;-49
2021/06/24 19:14:14;;;;;;;8.80;7.00;;;;;;;;;;4969104;28;20037;-48
2021/06/24 19:16:41;;;;;;;8.55;6.88;;;;;;;;;;4946396;28;20098;-48
2021/06/24 19:19:07;;;;;;;7.75;6.20;;;;;;;;;;4966006;28;20115;-49
2021/06/24 19:21:33;;;;;;;6.95;6.25;;;;;;;;;;4962091;28;20102;-46
2021/06/24 19:24:03;;;;;;;8.25;6.68;;;;;;;;;;4945426;28;20022;-49
2021/06/24 19:26:29;;;;;;;7.25;6.20;;;;;;;;;;4967769;28;20117;-48
2021/06/24 19:28:55;;;;;;;9.23;6.10;;;;;;;;;;4944253;28;20075;-51
2021/06/24 19:31:22;;;;;;;8.17;6.50;;;;;;;;;;4964402;28;20407;-47
2021/06/24 19:33:53;;;;;;;9.60;6.22;;;;;;;;;;4969113;28;20411;-51
2021/06/24 19:36:23;;;;;;;8.32;5.88;;;;;;;;;;4966265;28;20455;-53
2021/06/24 19:38:49;;;;;;;8.38;6.63;;;;;;;;;;4967344;28;20555;-51
2021/06/24 19:41:16;;;;;;;7.50;5.85;;;;;;;;;;4962275;28;20408;-50
2021/06/24 19:43:44;;;;;;;8.18;5.63;;;;;;;;;;4970810;28;20011;-48
2021/06/24 19:46:10;;;;;;;7.82;6.03;;;;;;;;;;4964862;28;20018;-52
2021/06/24 19:48:36;;;;;;;6.90;6.05;;;;;;;;;;4968014;28;20632;-49
2021/06/24 19:51:02;;;;;;;8.20;6.00;;;;;;;;;;4965661;28;20105;-48
2021/06/24 19:53:28;;;;;;;7.85;5.57;;;;;;;;;;4964830;28;20015;-48
2021/06/24 19:55:55;;;;;;;8.13;5.43;;;;;;;;;;4967631;28;20204;-49
2021/06/24 19:58:22;;;;;;;7.07;5.75;;;;;;;;;;4943821;28;20118;-51
2021/06/24 20:00:48;;;;;;;9.00;5.97;;;;;;;;;;4966186;28;20154;-51
2021/06/24 20:03:14;;;;;;;9.10;6.47;;;;;;;;;;4965353;28;20049;-52
2021/06/24 20:05:40;;;;;;;7.47;5.32;;;;;;;;;;4965794;28;20023;-50
2021/06/24 20:08:07;;;;;;;8.18;5.65;;;;;;;;;;4966433;28;20542;-46
2021/06/24 20:10:33;;;;;;;10.82;5.53;;;;;;;;;;4965069;28;20042;-48
2021/06/24 20:12:59;;;;;;;8.70;5.82;;;;;;;;;;4967270;28;20416;-52
2021/06/24 20:15:27;;;;;;;8.88;5.45;;;;;;;;;;4968797;28;20042;-48
2021/06/24 20:17:53;;;;;;;8.63;6.30;;;;;;;;;;4966031;28;20038;-51
2021/06/24 20:20:21;;;;;;;9.43;5.97;;;;;;;;;;4964496;28;20071;-49
2021/06/24 20:22:48;;;;;;;8.23;6.10;;;;;;;;;;4948328;28;20447;-50
2021/06/24 20:25:15;;;;;;;11.93;6.28;;;;;;;;;;4963392;28;20054;-49
2021/06/24 20:27:41;;;;;;;11.30;6.22;;;;;;;;;;4935220;29;20540;-48
2021/06/24 20:30:10;;;;;;;8.90;6.27;;;;;;;;;;4949862;29;20412;-50
2021/06/24 20:32:37;;;;;;;7.97;6.00;;;;;;;;;;4953002;28;20028;-50
2021/06/24 20:35:03;;;;;;;11.98;7.80;;;;;;;;;;4961121;28;20157;-48
2021/06/24 20:37:29;;;;;;;12.30;6.63;;;;;;;;;;4966335;28;20031;-53
2021/06/24 20:39:56;;;;;;;11.65;6.57;;;;;;;;;;4931341;29;20024;-53
2021/06/24 20:42:22;;;;;;;8.20;6.03;;;;;;;;;;4950920;29;20027;-49
2021/06/24 20:44:48;;;;;;;8.82;6.25;;;;;;;;;;4954531;28;20393;-48
2021/06/24 20:47:14;;;;;;;7.78;5.63;;;;;;;;;;4968272;28;20440;-49
